createdAt,value
2023-02-18T00:02:41.060Z,18.80
2023-02-18T00:06:44.563Z,22.35
2023-02-18T00:10:48.281Z,18.17
2023-02-18T00:14:51.099Z,18.58
2023-02-18T00:19:02.945Z,15.95
2023-02-18T00:23:05.640Z,15.00
2023-02-18T00:27:11.774Z,21.67
2023-02-18T00:31:24.950Z,21.17
2023-02-18T00:35:28.163Z,23.05
2023-02-18T00:39:31.516Z,21.27
2023-02-18T00:43:34.564Z,20.55
2023-02-18T00:47:38.331Z,23.80
2023-02-18T00:51:41.091Z,23.45
2023-02-18T00:55:45.779Z,24.02
2023-02-18T00:59:48.546Z,22.85
2023-02-18T01:03:51.466Z,24.08
2023-02-18T01:07:54.572Z,24.95
2023-02-18T01:11:58.364Z,24.63
2023-02-18T01:16:01.403Z,26.35
2023-02-18T01:20:06.608Z,25.85
2023-02-18T01:24:11.036Z,24.13
2023-02-18T01:28:15.408Z,29.90
2023-02-18T01:32:18.423Z,29.65
2023-02-18T01:36:21.628Z,32.25
2023-02-18T01:40:28.434Z,31.40
2023-02-18T01:48:39.841Z,31.50
2023-02-18T01:52:43.242Z,31.58
2023-02-18T01:56:51.445Z,29.55
2023-02-18T02:00:54.208Z,29.67
2023-02-18T02:04:58.507Z,31.92
2023-02-18T02:09:04.427Z,34.33
2023-02-18T02:13:17.932Z,33.43
2023-02-18T02:17:43.669Z,34.85
2023-02-18T02:22:05.581Z,32.65
2023-02-18T02:26:42.983Z,34.58
2023-02-18T02:31:23.114Z,33.05
2023-02-18T02:35:38.185Z,35.38
2023-02-18T02:40:03.874Z,36.67
2023-02-18T02:44:23.671Z,33.97
2023-02-18T02:48:51.243Z,35.10
2023-02-18T02:52:59.591Z,33.38
2023-02-18T02:57:17.495Z,34.10
2023-02-18T03:02:00.159Z,33.47
2023-02-18T03:06:18.936Z,36.97
2023-02-18T03:10:21.835Z,33.38
2023-02-18T03:14:53.855Z,30.92
2023-02-18T03:19:02.532Z,27.40
2023-02-18T03:23:12.276Z,26.02
2023-02-18T03:27:21.276Z,27.05
2023-02-18T03:31:27.721Z,31.83
2023-02-18T03:35:30.841Z,27.98
2023-02-18T03:39:36.633Z,30.40
2023-02-18T03:43:41.757Z,31.98
2023-02-18T03:47:44.557Z,29.83
2023-02-18T03:51:47.452Z,28.02
2023-02-18T03:55:50.317Z,32.35
2023-02-18T03:59:53.036Z,29.70
2023-02-18T04:03:55.860Z,28.83
2023-02-18T04:07:58.620Z,28.38
2023-02-18T04:12:02.009Z,33.45
2023-02-18T04:16:05.178Z,29.02
2023-02-18T04:20:08.390Z,34.08
2023-02-18T04:24:11.261Z,33.85
2023-02-18T04:28:16.732Z,31.88
2023-02-18T04:32:19.474Z,29.67
2023-02-18T04:36:22.296Z,28.90
2023-02-18T04:40:30.771Z,34.20
2023-02-18T04:44:33.422Z,32.40
2023-02-18T04:48:36.290Z,32.15
2023-02-18T04:52:39.008Z,33.47
2023-02-18T04:56:42.004Z,34.75
2023-02-18T05:00:45.186Z,33.67
2023-02-18T05:04:47.951Z,36.10
2023-02-18T05:08:50.662Z,31.17
2023-02-18T05:12:53.468Z,33.70
2023-02-18T05:16:56.180Z,26.02
2023-02-18T05:20:59.080Z,28.85
2023-02-18T05:25:02.788Z,28.50
2023-02-18T05:29:05.877Z,30.83
2023-02-18T05:33:08.620Z,28.42
2023-02-18T05:37:12.760Z,24.77
2023-02-18T05:41:15.505Z,28.45
2023-02-18T05:45:18.444Z,27.83
2023-02-18T05:49:21.540Z,27.05
2023-02-18T05:53:24.269Z,32.08
2023-02-18T05:57:27.695Z,26.17
2023-02-18T06:01:31.130Z,25.83
2023-02-18T06:05:34.135Z,25.63
2023-02-18T06:09:36.918Z,30.63
2023-02-18T06:13:39.875Z,28.45
2023-02-18T06:17:42.648Z,29.17
2023-02-18T06:21:47.914Z,28.85
2023-02-18T06:25:52.819Z,31.45
2023-02-18T06:29:55.474Z,30.02
2023-02-18T06:33:58.230Z,32.55
2023-02-18T06:38:01.003Z,31.23
2023-02-18T06:42:03.976Z,31.92
2023-02-18T06:46:07.330Z,27.77
2023-02-18T06:50:10.782Z,28.90
2023-02-18T06:54:13.758Z,31.85
2023-02-18T06:58:17.848Z,34.00
2023-02-18T07:02:20.825Z,30.20
2023-02-18T07:06:23.658Z,35.92
2023-02-18T07:10:26.627Z,32.97
2023-02-18T07:14:30.665Z,29.58
2023-02-18T07:18:34.697Z,28.73
2023-02-18T07:22:38.994Z,30.33
2023-02-18T07:26:43.145Z,34.30
2023-02-18T07:30:46.840Z,33.88
2023-02-18T07:34:52.848Z,36.40
2023-02-18T07:38:55.810Z,41.13
2023-02-18T07:42:58.653Z,35.83
2023-02-18T07:47:02.062Z,34.90
2023-02-18T07:51:09.831Z,33.75
2023-02-18T07:55:12.506Z,29.65
2023-02-18T07:59:15.436Z,30.92
2023-02-18T08:03:19.336Z,30.23
2023-02-18T08:07:23.643Z,29.08
2023-02-18T08:11:28.805Z,31.38
2023-02-18T08:15:32.753Z,37.40
2023-02-18T08:19:35.511Z,51.78
2023-02-18T08:23:38.290Z,70.15
2023-02-18T08:27:41.076Z,34.95
2023-02-18T08:31:45.421Z,37.58
2023-02-18T08:35:52.173Z,32.53
2023-02-18T08:39:55.012Z,30.17
2023-02-18T08:43:57.793Z,37.95
2023-02-18T08:48:17.812Z,25.98
2023-02-18T08:52:23.510Z,27.15
2023-02-18T08:56:26.277Z,31.75
2023-02-18T09:00:29.009Z,29.50
2023-02-18T09:04:32.009Z,31.88
2023-02-18T09:08:35.130Z,34.83
2023-02-18T09:12:37.803Z,25.98
2023-02-18T09:16:41.637Z,27.13
2023-02-18T09:20:44.300Z,27.63
2023-02-18T09:24:47.200Z,26.38
2023-02-18T09:28:50.945Z,23.42
2023-02-18T09:32:58.418Z,22.17
2023-02-18T09:37:01.582Z,24.95
2023-02-18T09:41:11.068Z,19.13
2023-02-18T09:45:14.263Z,18.38
2023-02-18T09:49:23.216Z,20.55
2023-02-18T09:53:26.453Z,32.80
2023-02-18T09:57:39.293Z,28.35
2023-02-18T10:01:43.862Z,56.08
2023-02-18T10:06:14.657Z,57.10
2023-02-18T10:10:31.437Z,40.45
2023-02-18T10:14:35.908Z,25.42
2023-02-18T10:18:50.619Z,33.42
2023-02-18T10:22:55.413Z,34.25
2023-02-18T10:26:59.760Z,19.92
2023-02-18T10:31:11.507Z,19.27
2023-02-18T10:35:44.250Z,14.65
2023-02-18T10:39:46.881Z,17.45
2023-02-18T10:44:02.011Z,16.35
2023-02-18T10:48:28.689Z,14.98
2023-02-18T10:52:36.660Z,28.38
2023-02-18T10:56:50.321Z,26.95
2023-02-18T11:00:53.452Z,23.75
2023-02-18T11:04:59.072Z,29.52
2023-02-18T11:09:02.877Z,30.30
2023-02-18T11:13:10.897Z,20.98
2023-02-18T11:17:22.131Z,18.67
2023-02-18T11:21:36.562Z,16.60
2023-02-18T11:25:42.290Z,20.85
2023-02-18T11:29:46.100Z,16.40
2023-02-18T11:33:52.709Z,18.73
2023-02-18T11:42:05.446Z,17.02
2023-02-18T11:46:19.941Z,17.53
2023-02-18T11:50:23.308Z,18.48
2023-02-18T11:54:30.378Z,16.73
2023-02-18T11:58:42.757Z,17.98
2023-02-18T12:02:45.517Z,21.48
2023-02-18T12:07:19.352Z,23.20
2023-02-18T12:11:33.829Z,20.65
2023-02-18T12:15:53.845Z,19.35
2023-02-18T12:20:42.984Z,15.70
2023-02-18T12:25:04.332Z,20.80
2023-02-18T12:30:05.699Z,19.27
2023-02-18T12:34:27.328Z,17.67
2023-02-18T12:39:00.860Z,18.58
2023-02-18T12:43:27.593Z,18.05
2023-02-18T12:47:51.007Z,17.52
2023-02-18T12:52:02.944Z,17.58
2023-02-18T12:56:12.893Z,13.15
2023-02-18T13:00:29.939Z,9.80
2023-02-18T13:04:44.415Z,8.38
2023-02-18T13:09:31.590Z,10.77
2023-02-18T13:13:39.696Z,10.05
2023-02-18T13:17:44.129Z,11.43
2023-02-18T13:21:50.770Z,10.23
2023-02-18T13:26:04.518Z,14.80
2023-02-18T13:30:23.741Z,8.52
2023-02-18T13:34:59.785Z,13.40
2023-02-18T13:39:19.332Z,15.18
2023-02-18T13:43:32.168Z,10.32
2023-02-18T13:47:49.633Z,12.85
2023-02-18T13:51:57.741Z,13.88
2023-02-18T13:56:21.972Z,50.10
2023-02-18T14:00:35.245Z,10.88
2023-02-18T14:04:53.890Z,10.82
2023-02-18T14:09:15.041Z,9.80
2023-02-18T14:13:26.297Z,10.60
2023-02-18T14:17:34.732Z,12.43
2023-02-18T14:21:43.339Z,11.15
2023-02-18T14:26:33.696Z,12.05
2023-02-18T14:30:42.063Z,14.10
2023-02-18T14:35:08.720Z,15.05
2023-02-18T14:44:03.794Z,14.93
2023-02-18T14:48:24.525Z,14.07
2023-02-18T14:52:38.783Z,13.80
2023-02-18T14:56:54.898Z,13.55
2023-02-18T15:00:58.166Z,15.13
2023-02-18T15:05:23.095Z,14.95
2023-02-18T15:09:25.832Z,14.82
2023-02-18T15:13:31.946Z,16.20
2023-02-18T15:17:34.979Z,15.57
2023-02-18T15:21:40.995Z,15.20
2023-02-18T15:25:51.203Z,16.40
2023-02-18T15:29:59.421Z,21.35
2023-02-18T15:34:02.347Z,21.38
2023-02-18T15:38:05.097Z,14.68
2023-02-18T15:42:31.406Z,15.85
2023-02-18T15:46:34.979Z,15.90
2023-02-18T15:50:48.605Z,16.23
2023-02-18T15:54:52.568Z,13.93
2023-02-18T15:59:21.863Z,16.35
2023-02-18T16:03:37.749Z,15.70
2023-02-18T16:07:53.333Z,14.40
2023-02-18T16:11:59.682Z,13.43
2023-02-18T16:16:03.431Z,14.23
2023-02-18T16:20:25.724Z,15.50
2023-02-18T16:24:33.062Z,16.98
2023-02-18T16:28:35.936Z,28.73
2023-02-18T16:32:38.648Z,76.53
2023-02-18T16:37:01.497Z,113.05
2023-02-18T16:41:04.490Z,51.58
2023-02-18T16:45:11.841Z,33.65
2023-02-18T16:49:14.802Z,28.35
2023-02-18T16:53:21.066Z,28.92
2023-02-18T16:57:25.306Z,138.80
2023-02-18T17:01:31.671Z,199.55
2023-02-18T17:05:40.461Z,184.70
2023-02-18T17:09:43.359Z,78.55
2023-02-18T17:18:13.170Z,66.72
2023-02-18T17:22:16.021Z,50.03
2023-02-18T17:26:24.668Z,240.75
2023-02-18T17:30:27.907Z,116.10
2023-02-18T17:34:32.635Z,94.53
2023-02-18T17:38:35.620Z,72.03
2023-02-18T17:42:38.428Z,69.78
2023-02-18T17:46:41.396Z,30.42
2023-02-18T17:50:44.396Z,108.93
2023-02-18T17:54:47.070Z,26.10
2023-02-18T17:58:49.788Z,57.97
2023-02-18T18:02:52.878Z,46.22
2023-02-18T18:06:56.144Z,40.50
2023-02-18T18:11:01.274Z,27.02
2023-02-18T18:15:18.020Z,42.35
2023-02-18T18:19:20.725Z,24.85
2023-02-18T18:23:23.669Z,16.95
2023-02-18T18:27:26.441Z,18.13
2023-02-18T18:31:29.455Z,34.92
2023-02-18T18:35:36.806Z,40.83
2023-02-18T18:45:02.172Z,21.50
2023-02-18T18:49:05.283Z,29.83
2023-02-18T18:53:28.220Z,23.27
2023-02-18T18:57:31.113Z,22.08
2023-02-18T19:01:34.084Z,28.05
2023-02-18T19:05:39.495Z,25.63
2023-02-18T19:09:42.263Z,24.80
2023-02-18T19:13:45.954Z,35.28
2023-02-18T19:17:51.284Z,22.10
2023-02-18T19:21:54.024Z,24.63
2023-02-18T19:25:57.822Z,33.78
2023-02-18T19:30:00.940Z,18.77
2023-02-18T19:34:03.902Z,16.13
2023-02-18T19:38:13.366Z,14.60
2023-02-18T19:42:16.029Z,23.05
2023-02-18T19:46:20.511Z,23.27
2023-02-18T19:50:24.502Z,19.80
2023-02-18T19:54:28.291Z,18.50
2023-02-18T19:58:31.037Z,17.40
2023-02-18T20:02:33.958Z,14.50
2023-02-18T20:06:37.103Z,13.85
2023-02-18T20:29:59.528Z,22.55
2023-02-18T20:34:02.515Z,15.07
2023-02-18T20:38:05.319Z,14.63
2023-02-18T20:42:16.412Z,15.27
2023-02-18T20:46:21.906Z,19.33
2023-02-18T20:50:27.010Z,16.45
2023-02-18T20:54:33.614Z,18.13
2023-02-18T20:58:36.663Z,18.85
2023-02-18T21:02:39.533Z,19.08
2023-02-18T21:06:45.283Z,16.02
2023-02-18T21:10:48.232Z,19.48
2023-02-18T21:14:51.872Z,19.08
2023-02-18T21:19:27.976Z,17.45
2023-02-18T21:23:31.277Z,16.77
2023-02-18T21:27:37.473Z,17.63
2023-02-18T21:31:44.058Z,19.13
2023-02-18T21:35:49.062Z,15.48
2023-02-18T21:39:53.878Z,21.13
2023-02-18T21:44:16.978Z,12.75
2023-02-18T21:49:09.090Z,17.05
2023-02-18T21:54:12.338Z,13.88
2023-02-18T22:03:29.519Z,14.95
2023-02-18T22:07:54.324Z,13.38
2023-02-18T22:12:49.705Z,15.88
2023-02-18T22:16:53.603Z,12.82
2023-02-18T22:20:57.597Z,15.40
2023-02-18T22:25:04.377Z,14.23
2023-02-18T22:29:38.069Z,14.07
2023-02-18T22:34:05.665Z,15.38
2023-02-18T22:38:27.203Z,12.82
2023-02-18T22:42:36.759Z,16.23
2023-02-18T22:47:17.210Z,13.20
2023-02-18T22:51:30.239Z,12.65
2023-02-18T22:56:17.809Z,12.25
2023-02-18T23:01:09.175Z,11.40
2023-02-18T23:05:45.829Z,14.48
2023-02-18T23:10:34.258Z,11.32
2023-02-18T23:19:24.748Z,13.80
2023-02-18T23:29:15.483Z,10.55
2023-02-18T23:33:39.794Z,11.90
2023-02-18T23:38:45.861Z,9.88
2023-02-18T23:43:21.025Z,11.15
2023-02-18T23:48:05.820Z,13.55
2023-02-18T23:52:39.623Z,10.88
2023-02-18T23:56:59.109Z,11.82
